Time;durP1;ratioP1;P1;durP2;ratioP2;P2;SDS_P1;SDS_P2;PMS_P1;PMS_P2;Temp;Humidity;BMP_temperature;BMP_pressure;BME280_temperature;BME280_humidity;BME280_pressure;Samples;Min_cycle;Max_cycle;Signal;HPM_P1;HPM_P2
2022/08/16 00:02:00;;;;;;;7.40;6.28;;;;;;;;;;5088148;28;20040;-76
2022/08/16 00:04:26;;;;;;;9.05;6.57;;;;;;;;;;5088077;28;20039;-76
2022/08/16 00:06:52;;;;;;;8.73;6.65;;;;;;;;;;5086709;28;20439;-76
2022/08/16 00:09:17;;;;;;;8.32;6.50;;;;;;;;;;5075004;28;20103;-77
2022/08/16 00:11:43;;;;;;;11.02;6.38;;;;;;;;;;5074894;28;20025;-77
2022/08/16 00:14:13;;;;;;;9.27;6.20;;;;;;;;;;5073723;28;20465;-78
2022/08/16 00:16:39;;;;;;;10.63;7.00;;;;;;;;;;5074048;28;20028;-77
2022/08/16 00:19:04;;;;;;;8.70;6.88;;;;;;;;;;5073489;28;20124;-78
2022/08/16 00:21:30;;;;;;;8.90;6.40;;;;;;;;;;5074529;28;20024;-78
2022/08/16 00:23:56;;;;;;;9.68;6.40;;;;;;;;;;5073470;28;20032;-77
2022/08/16 00:26:22;;;;;;;11.68;6.38;;;;;;;;;;5073555;28;20567;-77
2022/08/16 00:28:47;;;;;;;8.82;6.55;;;;;;;;;;5073330;28;20086;-78
2022/08/16 00:31:12;;;;;;;8.02;6.43;;;;;;;;;;5073456;28;20020;-76
2022/08/16 00:33:38;;;;;;;7.75;6.28;;;;;;;;;;5074004;28;20038;-77
2022/08/16 00:36:03;;;;;;;8.87;6.27;;;;;;;;;;5073552;28;20497;-77
2022/08/16 00:38:28;;;;;;;8.60;6.63;;;;;;;;;;5073459;28;20743;-77
2022/08/16 00:40:54;;;;;;;8.68;6.20;;;;;;;;;;5073163;28;20024;-77
2022/08/16 00:43:24;;;;;;;7.80;6.82;;;;;;;;;;5073290;28;20504;-76
2022/08/16 00:45:59;;;;;;;8.20;6.72;;;;;;;;;;5073327;28;20028;-77
2022/08/16 00:48:25;;;;;;;8.02;6.43;;;;;;;;;;5073402;28;20111;-76
2022/08/16 00:50:50;;;;;;;7.97;6.72;;;;;;;;;;5055153;28;20512;-78
2022/08/16 00:53:17;;;;;;;10.93;6.50;;;;;;;;;;5073388;28;20025;-77
2022/08/16 00:55:50;;;;;;;8.55;6.38;;;;;;;;;;5073655;28;20428;-77
2022/08/16 00:58:18;;;;;;;10.63;6.63;;;;;;;;;;5073285;28;20122;-78
2022/08/16 01:00:46;;;;;;;8.73;6.28;;;;;;;;;;5073149;28;20024;-76
2022/08/16 01:03:14;;;;;;;9.43;6.78;;;;;;;;;;5073021;28;20021;-76
2022/08/16 01:05:40;;;;;;;7.65;5.97;;;;;;;;;;5072967;28;20024;-77
2022/08/16 01:08:07;;;;;;;9.25;6.50;;;;;;;;;;5054938;28;20103;-77
2022/08/16 01:10:33;;;;;;;9.55;6.30;;;;;;;;;;5073256;28;20359;-77
2022/08/16 01:13:12;;;;;;;7.30;6.20;;;;;;;;;;5072681;28;20031;-77
2022/08/16 01:15:42;;;;;;;11.32;6.50;;;;;;;;;;5055028;28;20025;-76
2022/08/16 01:18:10;;;;;;;8.52;6.10;;;;;;;;;;5055075;28;20060;-76
2022/08/16 01:20:43;;;;;;;8.45;6.20;;;;;;;;;;5072747;28;20020;-77
2022/08/16 01:23:26;;;;;;;8.45;6.35;;;;;;;;;;5054735;28;20052;-76
2022/08/16 01:25:52;;;;;;;10.50;6.22;;;;;;;;;;5054854;28;20028;-77
2022/08/16 01:28:19;;;;;;;8.27;6.05;;;;;;;;;;5072746;28;20099;-77
2022/08/16 01:30:49;;;;;;;10.90;5.82;;;;;;;;;;5054897;28;20017;-77
2022/08/16 01:33:15;;;;;;;9.27;6.13;;;;;;;;;;5072465;28;20021;-77
2022/08/16 01:35:47;;;;;;;10.52;6.88;;;;;;;;;;5072660;28;20115;-77
2022/08/16 01:38:30;;;;;;;8.55;6.22;;;;;;;;;;5054617;28;20082;-76
2022/08/16 01:41:04;;;;;;;8.50;6.32;;;;;;;;;;5073527;28;20374;-76
2022/08/16 01:43:31;;;;;;;10.30;6.43;;;;;;;;;;5072439;28;20032;-77
2022/08/16 01:46:00;;;;;;;9.68;6.50;;;;;;;;;;5054594;28;20024;-77
2022/08/16 01:48:28;;;;;;;8.75;6.63;;;;;;;;;;5072763;28;20035;-76
2022/08/16 01:50:56;;;;;;;8.32;6.60;;;;;;;;;;5073011;28;20073;-76
2022/08/16 01:53:22;;;;;;;7.38;6.38;;;;;;;;;;5072292;28;20050;-77
2022/08/16 01:55:47;;;;;;;9.23;6.03;;;;;;;;;;5072678;28;20107;-76
2022/08/16 01:58:15;;;;;;;9.65;6.45;;;;;;;;;;5072657;28;20392;-77
2022/08/16 02:00:41;;;;;;;7.28;6.22;;;;;;;;;;5076036;28;20107;-77
2022/08/16 02:03:07;;;;;;;8.60;6.32;;;;;;;;;;5075938;28;20059;-76
2022/08/16 02:05:32;;;;;;;7.15;6.15;;;;;;;;;;5076166;28;20043;-76
2022/08/16 02:07:57;;;;;;;8.38;6.43;;;;;;;;;;5075944;28;20028;-76
2022/08/16 02:10:23;;;;;;;8.35;6.53;;;;;;;;;;5075885;28;20040;-76
2022/08/16 02:12:48;;;;;;;8.27;6.68;;;;;;;;;;5075728;28;20024;-76
2022/08/16 02:15:15;;;;;;;7.57;6.27;;;;;;;;;;5057889;28;20035;-76
2022/08/16 02:17:40;;;;;;;7.78;6.28;;;;;;;;;;5075968;28;20262;-76
2022/08/16 02:20:07;;;;;;;9.77;6.70;;;;;;;;;;5057720;28;20028;-76
2022/08/16 02:22:33;;;;;;;10.38;7.43;;;;;;;;;;5075813;28;20028;-77
2022/08/16 02:24:58;;;;;;;7.60;6.53;;;;;;;;;;5075748;28;20107;-76
2022/08/16 02:27:24;;;;;;;9.23;6.47;;;;;;;;;;5075549;28;20086;-77
2022/08/16 02:29:49;;;;;;;9.00;6.60;;;;;;;;;;5075743;28;20386;-78
2022/08/16 02:32:16;;;;;;;9.43;6.38;;;;;;;;;;5075478;28;20020;-76
2022/08/16 02:34:41;;;;;;;8.52;6.47;;;;;;;;;;5075409;28;20082;-77
2022/08/16 02:37:06;;;;;;;8.85;6.68;;;;;;;;;;5075426;28;20025;-75
2022/08/16 02:39:32;;;;;;;8.38;6.70;;;;;;;;;;5057339;28;20031;-76
2022/08/16 02:41:57;;;;;;;10.43;6.40;;;;;;;;;;5075467;28;20035;-77
2022/08/16 02:44:23;;;;;;;9.20;6.85;;;;;;;;;;5075290;28;20301;-75
2022/08/16 02:46:48;;;;;;;7.90;6.45;;;;;;;;;;5075547;28;20104;-76
2022/08/16 02:49:14;;;;;;;10.75;6.80;;;;;;;;;;5075358;28;20037;-76
2022/08/16 02:51:41;;;;;;;16.13;6.70;;;;;;;;;;5075310;28;20017;-75
2022/08/16 02:54:07;;;;;;;11.27;6.68;;;;;;;;;;5075175;28;20393;-76
2022/08/16 02:56:32;;;;;;;12.27;6.50;;;;;;;;;;5075096;28;20028;-77
2022/08/16 02:58:58;;;;;;;10.50;6.53;;;;;;;;;;5075063;28;20035;-76
2022/08/16 03:01:27;;;;;;;9.05;6.43;;;;;;;;;;5074993;28;20502;-77
2022/08/16 03:03:54;;;;;;;12.35;6.55;;;;;;;;;;5075036;28;20082;-77
2022/08/16 03:06:21;;;;;;;8.27;6.25;;;;;;;;;;5074924;28;20071;-77
2022/08/16 03:08:47;;;;;;;10.50;6.70;;;;;;;;;;5074986;28;20025;-77
2022/08/16 03:11:13;;;;;;;9.20;6.32;;;;;;;;;;5074008;28;20031;-77
2022/08/16 03:13:40;;;;;;;8.90;6.25;;;;;;;;;;5074793;28;20020;-77
2022/08/16 03:16:06;;;;;;;9.55;6.70;;;;;;;;;;5074624;28;20024;-77
2022/08/16 03:18:31;;;;;;;8.25;6.68;;;;;;;;;;5056710;28;20024;-77
2022/08/16 03:20:58;;;;;;;9.07;6.45;;;;;;;;;;5056620;28;20046;-77
2022/08/16 03:23:24;;;;;;;12.00;6.95;;;;;;;;;;5074450;28;20032;-77
2022/08/16 03:25:49;;;;;;;11.88;6.95;;;;;;;;;;5074419;28;20024;-77
2022/08/16 03:28:14;;;;;;;12.40;7.40;;;;;;;;;;5074528;28;20479;-77
2022/08/16 03:30:39;;;;;;;10.15;6.78;;;;;;;;;;5056513;28;20612;-76
2022/08/16 03:33:05;;;;;;;8.98;6.28;;;;;;;;;;5074379;28;20028;-77
2022/08/16 03:35:33;;;;;;;12.68;7.20;;;;;;;;;;5074419;28;20031;-77
2022/08/16 03:38:01;;;;;;;9.57;7.07;;;;;;;;;;5074150;28;20024;-77
2022/08/16 03:40:27;;;;;;;9.23;6.65;;;;;;;;;;5074170;28;20030;-77
2022/08/16 03:42:53;;;;;;;8.15;6.82;;;;;;;;;;5074075;28;20025;-77
2022/08/16 03:45:19;;;;;;;8.55;6.75;;;;;;;;;;5074234;28;20075;-77
2022/08/16 03:47:46;;;;;;;9.02;6.85;;;;;;;;;;5074232;28;20036;-77
2022/08/16 03:50:13;;;;;;;10.85;6.80;;;;;;;;;;5074458;28;20024;-77
2022/08/16 03:52:40;;;;;;;10.50;6.82;;;;;;;;;;5074013;28;20063;-76
2022/08/16 03:55:06;;;;;;;14.55;7.13;;;;;;;;;;5074366;28;20063;-78
2022/08/16 03:57:31;;;;;;;7.07;6.32;;;;;;;;;;5073635;28;20039;-77
2022/08/16 03:59:57;;;;;;;9.10;6.80;;;;;;;;;;5073576;28;20024;-77
2022/08/16 04:02:22;;;;;;;8.48;6.50;;;;;;;;;;5073774;28;20090;-75
2022/08/16 04:04:48;;;;;;;11.32;6.97;;;;;;;;;;5055889;28;20163;-77
2022/08/16 04:07:14;;;;;;;8.75;6.65;;;;;;;;;;5055963;28;20016;-77
2022/08/16 04:09:40;;;;;;;8.48;6.55;;;;;;;;;;5073831;28;20397;-76
2022/08/16 04:12:07;;;;;;;9.82;6.65;;;;;;;;;;5073923;28;20016;-77
2022/08/16 04:14:32;;;;;;;10.05;6.43;;;;;;;;;;5073762;28;20448;-78
2022/08/16 04:16:59;;;;;;;9.73;7.10;;;;;;;;;;5074072;28;20048;-77
2022/08/16 04:19:25;;;;;;;15.63;6.55;;;;;;;;;;5073259;28;20257;-77
2022/08/16 04:21:50;;;;;;;7.50;6.30;;;;;;;;;;5073227;28;20389;-78
2022/08/16 04:24:16;;;;;;;10.73;7.10;;;;;;;;;;5073434;28;20036;-77
2022/08/16 04:26:41;;;;;;;9.30;7.23;;;;;;;;;;5073510;28;20027;-77
2022/08/16 04:29:06;;;;;;;10.80;6.65;;;;;;;;;;5073478;28;20347;-76
2022/08/16 04:31:31;;;;;;;8.90;7.15;;;;;;;;;;5073577;28;20466;-76
2022/08/16 04:33:58;;;;;;;10.27;6.83;;;;;;;;;;5073595;28;20114;-77
2022/08/16 04:36:26;;;;;;;8.25;7.18;;;;;;;;;;5073321;28;20262;-76
2022/08/16 04:38:51;;;;;;;9.63;6.80;;;;;;;;;;5073337;28;20025;-77
2022/08/16 04:41:16;;;;;;;12.20;7.03;;;;;;;;;;5073364;28;20029;-78
2022/08/16 04:43:42;;;;;;;10.65;6.72;;;;;;;;;;5073519;28;20042;-77
2022/08/16 04:46:08;;;;;;;10.65;6.65;;;;;;;;;;5073499;28;20052;-77
2022/08/16 04:48:33;;;;;;;11.02;7.20;;;;;;;;;;5056020;28;20025;-78
2022/08/16 04:50:59;;;;;;;10.83;6.50;;;;;;;;;;5073585;28;20485;-77
2022/08/16 04:53:24;;;;;;;9.45;6.80;;;;;;;;;;5073252;28;20722;-76
2022/08/16 04:55:49;;;;;;;12.23;6.93;;;;;;;;;;5073250;28;20056;-77
2022/08/16 04:58:14;;;;;;;12.67;7.07;;;;;;;;;;5055411;28;20024;-76
2022/08/16 05:00:39;;;;;;;8.67;6.67;;;;;;;;;;5073451;28;20307;-76
2022/08/16 05:03:07;;;;;;;8.00;6.80;;;;;;;;;;5073202;28;20371;-77
2022/08/16 05:05:34;;;;;;;8.73;6.65;;;;;;;;;;5073237;28;20762;-77
2022/08/16 05:08:00;;;;;;;10.07;6.85;;;;;;;;;;5073429;28;20414;-77
2022/08/16 05:10:26;;;;;;;10.55;7.10;;;;;;;;;;5072826;28;20029;-77
2022/08/16 05:12:51;;;;;;;13.18;7.00;;;;;;;;;;5073397;28;20020;-76
2022/08/16 05:15:17;;;;;;;9.47;6.97;;;;;;;;;;5073261;28;20047;-77
2022/08/16 05:17:42;;;;;;;9.35;6.78;;;;;;;;;;5073017;28;20273;-77
2022/08/16 05:20:09;;;;;;;9.02;7.05;;;;;;;;;;5072961;28;20103;-77
2022/08/16 05:22:37;;;;;;;9.18;6.68;;;;;;;;;;5072824;28;20054;-76
2022/08/16 05:25:04;;;;;;;11.18;6.85;;;;;;;;;;5055072;28;20444;-77
2022/08/16 05:27:30;;;;;;;11.70;7.35;;;;;;;;;;5073082;28;20031;-77
2022/08/16 05:29:55;;;;;;;9.38;7.15;;;;;;;;;;5073080;28;20112;-77
2022/08/16 05:32:20;;;;;;;10.67;6.70;;;;;;;;;;5072950;28;20470;-77
2022/08/16 05:34:45;;;;;;;9.15;6.63;;;;;;;;;;5076107;28;20665;-77
2022/08/16 05:37:11;;;;;;;9.70;6.80;;;;;;;;;;5076732;28;20024;-77
2022/08/16 05:39:36;;;;;;;10.83;6.50;;;;;;;;;;5076597;28;20276;-77
2022/08/16 05:42:01;;;;;;;11.63;7.73;;;;;;;;;;5077301;28;20768;-77
2022/08/16 05:44:27;;;;;;;9.85;6.80;;;;;;;;;;5076503;28;20290;-77
2022/08/16 05:46:54;;;;;;;13.18;7.13;;;;;;;;;;5076598;28;20032;-77
2022/08/16 05:49:19;;;;;;;8.02;6.43;;;;;;;;;;5076716;28;20024;-76
2022/08/16 05:51:46;;;;;;;12.07;6.57;;;;;;;;;;5076741;28;20483;-76
2022/08/16 05:54:13;;;;;;;10.98;6.78;;;;;;;;;;5076109;28;20261;-76
2022/08/16 05:56:40;;;;;;;9.48;6.45;;;;;;;;;;5076550;28;20470;-76
2022/08/16 05:59:07;;;;;;;14.05;7.28;;;;;;;;;;5076099;28;20123;-76
2022/08/16 06:01:34;;;;;;;10.95;6.22;;;;;;;;;;5057861;28;20638;-76
2022/08/16 06:03:59;;;;;;;8.98;6.28;;;;;;;;;;5076037;28;20499;-76
2022/08/16 06:06:24;;;;;;;8.07;6.00;;;;;;;;;;5078296;28;20025;-76
2022/08/16 06:08:49;;;;;;;8.67;6.43;;;;;;;;;;5076109;28;20277;-75
2022/08/16 06:11:15;;;;;;;10.77;6.10;;;;;;;;;;5075625;28;20824;-77
2022/08/16 06:13:42;;;;;;;11.07;6.13;;;;;;;;;;5075828;28;20623;-77
2022/08/16 06:16:07;;;;;;;8.48;6.03;;;;;;;;;;5075697;28;20026;-76
2022/08/16 06:18:33;;;;;;;10.55;6.05;;;;;;;;;;5057761;28;20504;-77
2022/08/16 06:20:58;;;;;;;9.25;5.70;;;;;;;;;;5075620;28;20489;-78
2022/08/16 06:23:25;;;;;;;8.15;5.82;;;;;;;;;;5057659;28;20056;-76
2022/08/16 06:25:51;;;;;;;8.88;5.88;;;;;;;;;;5076140;28;20021;-78
2022/08/16 06:28:16;;;;;;;8.75;5.15;;;;;;;;;;5076031;28;20032;-76
2022/08/16 06:30:41;;;;;;;10.50;5.32;;;;;;;;;;5075593;28;20114;-77
2022/08/16 06:33:08;;;;;;;6.03;4.70;;;;;;;;;;5075709;28;20013;-77
2022/08/16 06:35:35;;;;;;;4.70;4.15;;;;;;;;;;5075644;28;20260;-78
2022/08/16 06:38:00;;;;;;;6.68;4.22;;;;;;;;;;5075673;28;20481;-76
2022/08/16 06:40:26;;;;;;;6.75;4.15;;;;;;;;;;5075546;28;20036;-78
2022/08/16 06:42:52;;;;;;;5.60;4.03;;;;;;;;;;5075431;28;20037;-77
2022/08/16 06:45:18;;;;;;;6.57;4.07;;;;;;;;;;5074895;28;20269;-76
2022/08/16 06:47:43;;;;;;;5.95;4.10;;;;;;;;;;5057030;28;20497;-76
2022/08/16 06:50:09;;;;;;;7.05;4.20;;;;;;;;;;5075658;28;20029;-76
2022/08/16 06:52:35;;;;;;;8.15;4.20;;;;;;;;;;5075160;28;20056;-75
2022/08/16 06:55:06;;;;;;;5.75;4.05;;;;;;;;;;5074989;28;20024;-76
2022/08/16 06:57:31;;;;;;;5.93;3.53;;;;;;;;;;5074694;28;20033;-77
2022/08/16 06:59:56;;;;;;;12.27;4.00;;;;;;;;;;5075045;28;20319;-77
2022/08/16 07:02:22;;;;;;;6.20;4.15;;;;;;;;;;5056965;28;20107;-76
2022/08/16 07:04:47;;;;;;;8.47;3.70;;;;;;;;;;5074444;28;20027;-76
2022/08/16 07:07:12;;;;;;;6.63;3.90;;;;;;;;;;5056857;28;20736;-76
2022/08/16 07:09:37;;;;;;;7.00;4.27;;;;;;;;;;5074648;28;20444;-76
2022/08/16 07:12:03;;;;;;;5.20;3.60;;;;;;;;;;5074731;28;20428;-77
2022/08/16 07:14:28;;;;;;;10.38;3.90;;;;;;;;;;5074586;28;20059;-77
2022/08/16 07:16:56;;;;;;;7.53;4.05;;;;;;;;;;5074500;28;20031;-77
2022/08/16 07:19:21;;;;;;;9.57;3.80;;;;;;;;;;5074581;28;20032;-77
2022/08/16 07:21:47;;;;;;;5.38;3.85;;;;;;;;;;5056359;28;20025;-76
2022/08/16 07:24:12;;;;;;;8.90;3.53;;;;;;;;;;5074253;28;20028;-78
2022/08/16 07:26:37;;;;;;;7.80;3.60;;;;;;;;;;5074911;28;20100;-76
2022/08/16 07:29:02;;;;;;;5.35;3.45;;;;;;;;;;5074519;28;20266;-77
2022/08/16 07:31:28;;;;;;;5.78;3.30;;;;;;;;;;5074425;28;20083;-77
2022/08/16 07:33:53;;;;;;;5.43;3.70;;;;;;;;;;5074168;28;20082;-75
2022/08/16 07:36:21;;;;;;;7.05;4.10;;;;;;;;;;5074629;28;20098;-77
2022/08/16 07:38:46;;;;;;;6.30;3.78;;;;;;;;;;5056095;28;20162;-76
2022/08/16 07:41:11;;;;;;;7.80;4.17;;;;;;;;;;5074121;28;20044;-76
2022/08/16 07:43:37;;;;;;;9.93;3.37;;;;;;;;;;5074110;28;20314;-75
2022/08/16 07:46:02;;;;;;;7.10;3.40;;;;;;;;;;5074009;28;20028;-75
2022/08/16 07:48:28;;;;;;;6.70;3.75;;;;;;;;;;5074257;28;20027;-77
2022/08/16 07:50:54;;;;;;;7.05;3.40;;;;;;;;;;5074472;28;20078;-76
2022/08/16 07:53:19;;;;;;;7.13;3.70;;;;;;;;;;5073810;28;20532;-77
2022/08/16 07:55:45;;;;;;;5.65;3.47;;;;;;;;;;5073319;28;20391;-76
2022/08/16 07:58:10;;;;;;;9.70;3.42;;;;;;;;;;5073286;28;20568;-77
2022/08/16 08:00:35;;;;;;;8.43;3.30;;;;;;;;;;5075614;28;20024;-77
2022/08/16 08:03:01;;;;;;;5.22;3.50;;;;;;;;;;5057260;28;20654;-76
2022/08/16 08:05:27;;;;;;;5.68;3.30;;;;;;;;;;5075318;28;20098;-77
2022/08/16 08:07:53;;;;;;;11.65;3.55;;;;;;;;;;5074923;28;20044;-75
2022/08/16 08:10:20;;;;;;;5.65;3.38;;;;;;;;;;5074732;28;20024;-76
2022/08/16 08:12:51;;;;;;;6.63;3.40;;;;;;;;;;5075057;28;20024;-75
2022/08/16 08:15:17;;;;;;;6.10;3.50;;;;;;;;;;5075411;28;20048;-76
2022/08/16 08:17:43;;;;;;;5.25;3.40;;;;;;;;;;5058338;28;20024;-77
2022/08/16 08:20:12;;;;;;;11.38;3.20;;;;;;;;;;5059901;28;20017;-74
2022/08/16 08:22:38;;;;;;;4.43;2.97;;;;;;;;;;5081410;28;20035;-75
2022/08/16 08:25:04;;;;;;;4.45;3.03;;;;;;;;;;5080479;28;20032;-75
2022/08/16 08:27:29;;;;;;;9.18;2.92;;;;;;;;;;5076510;28;20024;-78
2022/08/16 08:29:55;;;;;;;11.38;2.95;;;;;;;;;;5077316;28;20536;-78
2022/08/16 08:32:20;;;;;;;4.40;2.90;;;;;;;;;;5075013;28;20024;-78
2022/08/16 08:34:46;;;;;;;8.40;3.00;;;;;;;;;;5073525;28;20423;-78
2022/08/16 08:37:12;;;;;;;6.78;3.10;;;;;;;;;;5073698;28;20082;-76
2022/08/16 08:39:38;;;;;;;4.00;3.15;;;;;;;;;;5073283;28;20024;-77
2022/08/16 08:42:04;;;;;;;5.35;2.67;;;;;;;;;;5073085;28;20020;-76
2022/08/16 08:44:30;;;;;;;3.67;2.83;;;;;;;;;;5055024;28;20035;-77
2022/08/16 08:46:57;;;;;;;6.15;2.95;;;;;;;;;;5072795;28;20025;-76
2022/08/16 08:49:23;;;;;;;6.13;2.60;;;;;;;;;;5054838;28;20035;-76
2022/08/16 08:51:48;;;;;;;5.13;2.50;;;;;;;;;;5072878;28;20166;-76
2022/08/16 08:54:13;;;;;;;6.65;2.33;;;;;;;;;;5072732;28;20108;-77
2022/08/16 08:56:40;;;;;;;10.17;2.63;;;;;;;;;;5072918;28;20035;-76
2022/08/16 08:59:06;;;;;;;3.55;2.45;;;;;;;;;;5055082;28;20062;-77
2022/08/16 09:01:34;;;;;;;6.88;2.53;;;;;;;;;;5072913;28;20099;-77
2022/08/16 09:03:59;;;;;;;4.18;2.40;;;;;;;;;;5072990;28;20107;-76
2022/08/16 09:06:25;;;;;;;3.20;2.40;;;;;;;;;;5072878;28;20056;-77
2022/08/16 09:08:50;;;;;;;5.47;2.50;;;;;;;;;;5076120;28;20462;-76
2022/08/16 09:11:15;;;;;;;6.43;2.80;;;;;;;;;;5059041;28;20078;-77
2022/08/16 09:13:43;;;;;;;5.75;2.42;;;;;;;;;;5077184;28;20019;-75
2022/08/16 09:16:08;;;;;;;3.05;2.40;;;;;;;;;;5076762;28;20024;-75
2022/08/16 09:18:33;;;;;;;2.40;2.13;;;;;;;;;;5058833;28;20031;-77
2022/08/16 09:20:59;;;;;;;5.83;2.40;;;;;;;;;;5076766;28;20680;-76
2022/08/16 09:23:25;;;;;;;3.67;2.60;;;;;;;;;;5076756;28;20475;-77
2022/08/16 09:25:50;;;;;;;7.70;2.50;;;;;;;;;;5076951;28;20032;-77
2022/08/16 09:28:16;;;;;;;4.93;2.50;;;;;;;;;;5076772;28;20024;-77
2022/08/16 09:30:42;;;;;;;2.90;2.60;;;;;;;;;;5077141;28;20037;-78
2022/08/16 09:33:08;;;;;;;7.30;2.72;;;;;;;;;;5076522;28;20075;-76
2022/08/16 09:35:35;;;;;;;3.70;2.22;;;;;;;;;;5076442;28;20021;-77
2022/08/16 09:38:01;;;;;;;4.10;2.70;;;;;;;;;;5076372;28;20021;-77
2022/08/16 09:40:27;;;;;;;3.63;2.60;;;;;;;;;;5076212;28;20027;-77
2022/08/16 09:42:54;;;;;;;4.05;2.75;;;;;;;;;;5076151;28;20028;-76
2022/08/16 09:45:20;;;;;;;9.15;2.40;;;;;;;;;;5076382;28;20071;-76
2022/08/16 09:47:46;;;;;;;6.13;2.90;;;;;;;;;;5076169;28;20028;-77
2022/08/16 09:50:12;;;;;;;4.03;2.53;;;;;;;;;;5058341;28;20501;-76
2022/08/16 09:52:39;;;;;;;3.53;2.50;;;;;;;;;;5058133;28;20086;-77
2022/08/16 09:55:07;;;;;;;7.88;2.60;;;;;;;;;;5075991;28;20520;-78
2022/08/16 09:57:32;;;;;;;5.80;2.50;;;;;;;;;;5076130;28;20492;-76
2022/08/16 10:00:00;;;;;;;4.28;2.47;;;;;;;;;;5076258;28;20020;-77
2022/08/16 10:02:25;;;;;;;5.13;2.50;;;;;;;;;;5058184;28;20375;-77
2022/08/16 10:04:51;;;;;;;5.82;2.20;;;;;;;;;;5076233;28;20023;-76
2022/08/16 10:07:17;;;;;;;4.10;2.60;;;;;;;;;;5075822;28;20052;-77
2022/08/16 10:09:43;;;;;;;5.85;2.30;;;;;;;;;;5075994;28;20338;-76
2022/08/16 10:14:52;;;;;;;;;;;;;;;;;;5076375;28;20126;-77
2022/08/16 10:17:18;;;;;;;5.70;3.23;;;;;;;;;;5075737;28;20366;-76
2022/08/16 10:19:45;;;;;;;5.18;2.38;;;;;;;;;;5075225;28;20023;-76
2022/08/16 10:22:11;;;;;;;5.60;2.42;;;;;;;;;;5075725;28;20391;-76
2022/08/16 10:24:36;;;;;;;4.45;2.22;;;;;;;;;;5057481;28;20112;-77
2022/08/16 10:27:02;;;;;;;6.55;2.55;;;;;;;;;;5075437;28;20032;-77
2022/08/16 10:29:27;;;;;;;6.53;2.58;;;;;;;;;;5075596;28;20140;-76
2022/08/16 10:31:52;;;;;;;5.32;2.40;;;;;;;;;;5075348;28;20025;-76
2022/08/16 10:34:17;;;;;;;4.03;2.30;;;;;;;;;;5075224;28;20433;-77
2022/08/16 10:36:43;;;;;;;5.93;2.70;;;;;;;;;;5057289;28;20300;-76
2022/08/16 10:39:08;;;;;;;3.53;2.03;;;;;;;;;;5057226;28;20059;-74
2022/08/16 10:41:33;;;;;;;6.30;2.30;;;;;;;;;;5057100;28;20059;-76
2022/08/16 10:43:59;;;;;;;4.78;2.20;;;;;;;;;;5075108;28;20147;-76
2022/08/16 10:46:24;;;;;;;5.40;2.47;;;;;;;;;;5075020;28;20024;-75
2022/08/16 10:48:51;;;;;;;3.28;2.50;;;;;;;;;;5075007;28;20021;-76
2022/08/16 10:51:16;;;;;;;5.03;2.50;;;;;;;;;;5074570;28;20051;-76
2022/08/16 10:53:42;;;;;;;5.47;2.40;;;;;;;;;;5075329;28;20051;-77
2022/08/16 10:56:09;;;;;;;5.32;2.45;;;;;;;;;;5074776;28;20021;-76
2022/08/16 10:58:36;;;;;;;3.72;2.30;;;;;;;;;;5075027;28;20110;-77
2022/08/16 11:01:05;;;;;;;4.18;2.30;;;;;;;;;;5074853;28;20115;-76
2022/08/16 11:03:30;;;;;;;3.28;2.20;;;;;;;;;;5074731;28;20024;-77
2022/08/16 11:05:55;;;;;;;4.68;2.25;;;;;;;;;;5074596;28;20036;-77
2022/08/16 11:08:22;;;;;;;3.37;2.20;;;;;;;;;;5074611;28;20028;-76
2022/08/16 11:10:48;;;;;;;8.98;2.50;;;;;;;;;;5056436;28;20272;-76
2022/08/16 11:13:17;;;;;;;6.90;2.40;;;;;;;;;;5074756;28;20021;-76
2022/08/16 11:15:43;;;;;;;6.40;2.50;;;;;;;;;;5074641;28;20028;-77
2022/08/16 11:18:10;;;;;;;4.57;2.50;;;;;;;;;;5074671;28;20078;-76
2022/08/16 11:20:35;;;;;;;7.50;2.50;;;;;;;;;;5056527;28;20090;-75
2022/08/16 11:23:01;;;;;;;4.45;2.30;;;;;;;;;;5056476;28;20371;-76
2022/08/16 11:25:28;;;;;;;3.10;2.38;;;;;;;;;;5074821;28;20099;-78
2022/08/16 11:27:55;;;;;;;2.97;2.30;;;;;;;;;;5074397;28;20074;-76
2022/08/16 11:30:21;;;;;;;5.72;2.60;;;;;;;;;;5056049;28;20052;-76
2022/08/16 11:32:46;;;;;;;5.53;2.58;;;;;;;;;;5055661;28;20492;-78
2022/08/16 11:35:16;;;;;;;6.40;2.30;;;;;;;;;;5074085;28;20083;-77
2022/08/16 11:37:52;;;;;;;8.38;2.80;;;;;;;;;;5074215;28;20389;-76
2022/08/16 11:40:17;;;;;;;3.72;2.05;;;;;;;;;;5074102;28;20478;-76
2022/08/16 11:42:43;;;;;;;4.00;2.40;;;;;;;;;;5074224;28;20034;-76
2022/08/16 11:45:09;;;;;;;4.45;2.35;;;;;;;;;;5055933;28;20098;-76
2022/08/16 11:47:36;;;;;;;2.90;2.38;;;;;;;;;;5055966;28;20024;-75
2022/08/16 11:50:01;;;;;;;6.38;2.20;;;;;;;;;;5073922;28;20028;-76
2022/08/16 11:52:26;;;;;;;3.13;2.30;;;;;;;;;;5073977;28;20024;-77
2022/08/16 11:54:52;;;;;;;2.80;2.22;;;;;;;;;;5073677;28;20032;-75
2022/08/16 11:57:17;;;;;;;7.97;2.65;;;;;;;;;;5073777;28;20029;-76
2022/08/16 11:59:42;;;;;;;4.80;2.35;;;;;;;;;;5074921;28;20063;-77
2022/08/16 12:02:08;;;;;;;5.27;2.23;;;;;;;;;;5073935;28;20367;-76
2022/08/16 12:04:34;;;;;;;6.55;2.35;;;;;;;;;;5073825;28;20343;-76
2022/08/16 12:07:04;;;;;;;4.88;2.30;;;;;;;;;;5073542;28;20029;-76
2022/08/16 12:09:29;;;;;;;5.20;2.42;;;;;;;;;;5073514;28;20028;-76
2022/08/16 12:11:57;;;;;;;3.93;2.33;;;;;;;;;;5073458;28;20100;-76
2022/08/16 12:14:22;;;;;;;2.60;2.20;;;;;;;;;;5055414;28;20261;-77
2022/08/16 12:16:47;;;;;;;3.97;2.30;;;;;;;;;;5073341;28;20021;-76
2022/08/16 12:19:13;;;;;;;3.53;2.33;;;;;;;;;;5073738;28;20077;-75
2022/08/16 12:21:38;;;;;;;5.40;2.27;;;;;;;;;;5073288;28;20058;-76
2022/08/16 12:24:04;;;;;;;4.22;2.28;;;;;;;;;;5073317;28;20737;-77
2022/08/16 12:26:30;;;;;;;4.18;2.20;;;;;;;;;;5073305;28;20025;-77
2022/08/16 12:28:56;;;;;;;9.48;2.38;;;;;;;;;;5073037;28;20039;-77
2022/08/16 12:31:21;;;;;;;3.75;2.30;;;;;;;;;;5073079;28;20021;-77
2022/08/16 12:33:47;;;;;;;5.32;2.53;;;;;;;;;;5073068;28;20017;-75
2022/08/16 12:36:12;;;;;;;7.22;2.50;;;;;;;;;;5073235;28;20032;-77
2022/08/16 12:38:38;;;;;;;5.07;2.40;;;;;;;;;;5073385;28;20466;-77
2022/08/16 12:41:03;;;;;;;5.30;2.40;;;;;;;;;;5073305;28;20033;-76
2022/08/16 12:43:30;;;;;;;3.28;2.30;;;;;;;;;;5072845;28;20075;-77
2022/08/16 12:45:55;;;;;;;4.55;2.30;;;;;;;;;;5072929;28;20106;-76
2022/08/16 12:51:14;;;;;;;3.30;2.17;;;;;;;;;;5073546;28;20039;-75
2022/08/16 12:53:40;;;;;;;5.72;2.20;;;;;;;;;;5072957;28;20112;-77
2022/08/16 12:56:06;;;;;;;4.30;2.65;;;;;;;;;;5055732;28;20059;-77
2022/08/16 12:58:32;;;;;;;6.97;2.58;;;;;;;;;;5072687;28;20451;-75
2022/08/16 13:00:58;;;;;;;4.68;2.22;;;;;;;;;;5072973;28;20159;-76
2022/08/16 13:03:24;;;;;;;2.50;2.10;;;;;;;;;;5054556;28;20115;-76
2022/08/16 13:05:49;;;;;;;4.18;2.20;;;;;;;;;;5072775;28;20171;-76
2022/08/16 13:08:17;;;;;;;6.30;2.55;;;;;;;;;;5072761;28;20072;-76
2022/08/16 13:10:46;;;;;;;3.55;2.33;;;;;;;;;;5072693;28;20031;-77
2022/08/16 13:13:15;;;;;;;4.93;2.50;;;;;;;;;;5072673;28;20075;-76
2022/08/16 13:15:42;;;;;;;4.45;2.42;;;;;;;;;;5054922;28;20482;-75
2022/08/16 13:18:08;;;;;;;5.47;2.50;;;;;;;;;;5054806;28;20496;-78
2022/08/16 13:20:33;;;;;;;3.63;2.42;;;;;;;;;;5072683;28;20028;-76
2022/08/16 13:23:02;;;;;;;4.15;2.28;;;;;;;;;;5054494;28;20025;-76
2022/08/16 13:25:30;;;;;;;4.53;2.25;;;;;;;;;;5072606;28;20031;-76
2022/08/16 13:27:56;;;;;;;7.78;2.60;;;;;;;;;;5073069;28;20036;-77
2022/08/16 13:30:22;;;;;;;2.67;2.20;;;;;;;;;;5054626;28;20032;-76
2022/08/16 13:32:49;;;;;;;5.25;2.38;;;;;;;;;;5073351;28;20103;-76
2022/08/16 13:35:15;;;;;;;3.33;2.22;;;;;;;;;;5072561;28;20465;-77
2022/08/16 13:37:40;;;;;;;4.70;2.20;;;;;;;;;;5072756;28;20112;-74
2022/08/16 13:40:06;;;;;;;8.13;2.40;;;;;;;;;;5072410;28;20504;-76
2022/08/16 13:42:31;;;;;;;7.13;2.40;;;;;;;;;;5072364;28;20474;-76
2022/08/16 13:44:57;;;;;;;3.17;2.42;;;;;;;;;;5072139;28;20021;-76
2022/08/16 13:47:23;;;;;;;3.05;2.25;;;;;;;;;;5072243;28;20056;-77
2022/08/16 13:49:50;;;;;;;5.20;2.38;;;;;;;;;;5072473;28;20032;-77
2022/08/16 13:52:15;;;;;;;4.60;2.45;;;;;;;;;;5072346;28;20013;-76
2022/08/16 13:54:41;;;;;;;6.32;2.40;;;;;;;;;;5073180;28;20397;-75
2022/08/16 13:57:06;;;;;;;4.67;2.33;;;;;;;;;;5075839;28;20021;-75
2022/08/16 13:59:31;;;;;;;6.40;2.63;;;;;;;;;;5058055;28;20754;-76
2022/08/16 14:02:02;;;;;;;6.53;2.30;;;;;;;;;;5077551;28;20469;-76
2022/08/16 14:04:31;;;;;;;4.95;2.38;;;;;;;;;;5059148;28;20549;-76
2022/08/16 14:06:57;;;;;;;6.68;2.70;;;;;;;;;;5077224;28;20054;-77
2022/08/16 14:09:23;;;;;;;4.28;2.40;;;;;;;;;;5076351;28;20469;-76
2022/08/16 14:11:49;;;;;;;4.43;2.30;;;;;;;;;;5076296;28;20020;-76
2022/08/16 14:14:14;;;;;;;3.42;2.22;;;;;;;;;;5057826;28;20421;-77
2022/08/16 14:16:39;;;;;;;5.68;2.10;;;;;;;;;;5075765;28;20040;-76
2022/08/16 14:19:06;;;;;;;7.33;2.30;;;;;;;;;;5076278;28;20032;-77
2022/08/16 14:21:32;;;;;;;5.28;2.40;;;;;;;;;;5075968;28;20390;-77
2022/08/16 14:23:58;;;;;;;6.60;2.40;;;;;;;;;;5075557;28;20088;-77
2022/08/16 14:26:23;;;;;;;4.27;2.30;;;;;;;;;;5075928;28;20024;-76
2022/08/16 14:28:51;;;;;;;2.90;2.37;;;;;;;;;;5057865;28;20262;-76
2022/08/16 14:31:17;;;;;;;5.32;2.20;;;;;;;;;;5075588;28;20024;-77
2022/08/16 14:33:43;;;;;;;6.03;2.45;;;;;;;;;;5075623;28;20124;-76
2022/08/16 14:36:09;;;;;;;4.18;2.30;;;;;;;;;;5075566;28;20048;-77
2022/08/16 14:38:34;;;;;;;2.95;2.10;;;;;;;;;;5075497;28;20021;-77
2022/08/16 14:40:59;;;;;;;6.07;2.50;;;;;;;;;;5075617;28;20052;-77